createdAt,value
2023-04-14T00:02:13.925Z,99200.34
2023-04-14T00:04:41.148Z,99185.72
2023-04-14T00:07:08.197Z,99191.78
2023-04-14T00:09:35.169Z,99203.22
2023-04-14T00:12:02.228Z,99196.69
2023-04-14T00:14:29.385Z,99205.44
2023-04-14T00:16:56.427Z,99207.78
2023-04-14T00:19:23.557Z,99211.75
2023-04-14T00:21:51.059Z,99184.75
2023-04-14T00:24:17.976Z,99199.78
2023-04-14T00:26:44.995Z,99212.38
2023-04-14T00:29:12.142Z,99226.88
2023-04-14T00:31:39.112Z,99206.66
2023-04-14T00:34:06.279Z,99226.97
2023-04-14T00:36:33.391Z,99207.44
2023-04-14T00:39:01.384Z,99230.34
2023-04-14T00:41:36.280Z,99238.63
2023-04-14T00:44:03.305Z,99229.75
2023-04-14T00:46:30.721Z,99223.78
2023-04-14T00:48:58.494Z,99222.56
2023-04-14T00:51:27.422Z,99233.78
2023-04-14T00:53:55.621Z,99224.53
2023-04-14T00:56:23.773Z,99238.41
2023-04-14T00:58:52.766Z,99254.53
2023-04-14T01:01:21.103Z,99235.97
2023-04-14T01:03:48.604Z,99225.47
2023-04-14T01:06:15.681Z,99242.25
2023-04-14T01:08:42.719Z,99220.41
2023-04-14T01:11:58.682Z,99241.28
2023-04-14T01:14:25.628Z,99250.84
2023-04-14T01:17:00.648Z,99245.66
2023-04-14T01:19:43.341Z,99247.09
2023-04-14T01:22:14.887Z,99255.91
2023-04-14T01:25:05.174Z,99257.63
2023-04-14T01:27:46.497Z,99250.25
2023-04-14T01:30:41.952Z,99268.44
2023-04-14T01:33:15.653Z,99267.47
2023-04-14T01:35:45.220Z,99270.97
2023-04-14T01:38:22.500Z,99270.19
2023-04-14T01:40:52.659Z,99270.63
2023-04-14T01:43:25.660Z,99264.31
2023-04-14T01:45:56.506Z,99283.75
2023-04-14T01:48:25.922Z,99280.91
2023-04-14T01:50:55.414Z,99309.22
2023-04-14T01:53:24.555Z,99299.53
2023-04-14T01:55:53.290Z,99299.56
2023-04-14T01:58:23.046Z,99292.78
2023-04-14T02:00:52.866Z,99291.22
2023-04-14T02:03:22.067Z,99306.31
2023-04-14T02:05:52.664Z,99294.16
2023-04-14T02:08:21.457Z,99282.25
2023-04-14T02:10:50.421Z,99293.81
2023-04-14T02:13:20.042Z,99306.63
2023-04-14T02:15:51.200Z,99292.78
2023-04-14T02:18:23.218Z,99295.47
2023-04-14T02:20:52.820Z,99303.34
2023-04-14T02:23:19.909Z,99300.50
2023-04-14T02:26:01.011Z,99311.25
2023-04-14T02:28:32.336Z,99336.25
2023-04-14T02:31:05.029Z,99338.16
2023-04-14T02:33:36.868Z,99337.34
2023-04-14T02:36:19.295Z,99327.44
2023-04-14T02:38:49.892Z,99352.59
2023-04-14T02:41:23.892Z,99342.28
2023-04-14T02:44:04.169Z,99331.56
2023-04-14T02:46:39.665Z,99336.53
2023-04-14T02:49:12.741Z,99334.94
2023-04-14T02:51:41.785Z,99345.69
2023-04-14T02:54:09.315Z,99347.13
2023-04-14T02:56:43.012Z,99336.63
2023-04-14T02:59:10.256Z,99339.13
2023-04-14T03:01:48.924Z,99349.22
2023-04-14T03:04:18.365Z,99344.09
2023-04-14T03:06:46.191Z,99368.38
2023-04-14T03:09:13.959Z,99377.84
2023-04-14T03:11:43.264Z,99371.47
2023-04-14T03:14:11.198Z,99376.59
2023-04-14T03:16:40.541Z,99377.81
2023-04-14T03:19:10.464Z,99384.22
2023-04-14T03:21:42.433Z,99377.81
2023-04-14T03:24:14.131Z,99373.47
2023-04-14T03:26:44.246Z,99381.66
2023-04-14T03:29:12.769Z,99387.22
2023-04-14T03:31:44.299Z,99386.78
2023-04-14T03:34:15.451Z,99383.66
2023-04-14T03:36:48.882Z,99363.22
2023-04-14T03:39:18.874Z,99407.56
2023-04-14T03:41:49.497Z,99391.72
2023-04-14T03:44:20.188Z,99369.84
2023-04-14T03:46:50.582Z,99379.78
2023-04-14T03:49:20.970Z,99390.25
2023-04-14T03:51:53.404Z,99387.97
2023-04-14T03:54:25.577Z,99390.84
2023-04-14T03:56:56.980Z,99384.66
2023-04-14T03:59:27.852Z,99383.19
2023-04-14T04:01:56.592Z,99397.41
2023-04-14T04:04:25.291Z,99391.22
2023-04-14T04:06:53.748Z,99391.03
2023-04-14T04:09:24.753Z,99420.34
2023-04-14T04:11:53.239Z,99407.34
2023-04-14T04:14:23.031Z,99403.88
2023-04-14T04:16:53.889Z,99399.13
2023-04-14T04:19:22.421Z,99411.28
2023-04-14T04:21:53.556Z,99394.59
2023-04-14T04:24:23.209Z,99408.03
2023-04-14T04:26:53.186Z,99408.88
2023-04-14T04:29:25.456Z,99407.88
2023-04-14T04:31:55.021Z,99406.84
2023-04-14T04:34:25.790Z,99402.31
2023-04-14T04:36:54.552Z,99401.88
2023-04-14T04:39:21.562Z,99405.56
2023-04-14T04:41:52.047Z,99413.13
2023-04-14T04:44:38.729Z,99403.03
2023-04-14T04:47:06.274Z,99402.41
2023-04-14T04:49:33.236Z,99413.13
2023-04-14T04:52:03.425Z,99406.09
2023-04-14T04:54:31.702Z,99432.03
2023-04-14T04:56:58.987Z,99425.59
2023-04-14T04:59:26.318Z,99417.53
2023-04-14T05:01:53.587Z,99439.41
2023-04-14T05:04:20.663Z,99425.84
2023-04-14T05:06:47.807Z,99438.59
2023-04-14T05:09:14.814Z,99431.59
2023-04-14T05:11:41.905Z,99425.88
2023-04-14T05:14:08.953Z,99435.66
2023-04-14T05:16:36.402Z,99428.00
2023-04-14T05:19:04.124Z,99432.91
2023-04-14T05:21:31.135Z,99435.72
2023-04-14T05:23:58.061Z,99428.06
2023-04-14T05:28:54.834Z,99442.78
2023-04-14T05:31:22.303Z,99436.81
2023-04-14T05:33:49.370Z,99424.44
2023-04-14T05:36:16.502Z,99435.00
2023-04-14T05:38:43.539Z,99422.25
2023-04-14T05:41:12.099Z,99431.31
2023-04-14T05:43:39.260Z,99435.84
2023-04-14T05:46:06.286Z,99458.13
2023-04-14T05:48:33.763Z,99441.81
2023-04-14T05:51:01.013Z,99449.00
2023-04-14T05:53:28.006Z,99451.03
2023-04-14T05:55:56.948Z,99455.56
2023-04-14T05:58:26.398Z,99459.25
2023-04-14T06:00:53.438Z,99443.13
2023-04-14T06:03:20.538Z,99451.13
2023-04-14T06:05:48.372Z,99453.81
2023-04-14T06:08:15.562Z,99461.66
2023-04-14T06:10:42.619Z,99450.69
2023-04-14T06:13:09.701Z,99447.41
2023-04-14T06:15:37.450Z,99472.41
2023-04-14T06:18:04.544Z,99449.50
2023-04-14T06:20:32.604Z,99445.94
2023-04-14T06:23:01.042Z,99467.63
2023-04-14T06:25:31.198Z,99463.47
2023-04-14T06:27:58.341Z,99443.41
2023-04-14T06:30:28.558Z,99466.97
2023-04-14T06:32:55.586Z,99466.75
2023-04-14T06:35:32.445Z,99451.84
2023-04-14T06:38:00.906Z,99448.13
2023-04-14T06:40:27.941Z,99456.34
2023-04-14T06:42:55.029Z,99459.16
2023-04-14T06:45:22.082Z,99469.19
2023-04-14T06:47:49.143Z,99469.72
2023-04-14T06:50:16.348Z,99462.03
2023-04-14T06:52:43.507Z,99465.59
2023-04-14T06:55:10.833Z,99464.72
2023-04-14T06:57:37.820Z,99476.03
2023-04-14T07:00:08.585Z,99483.97
2023-04-14T07:02:35.601Z,99491.75
2023-04-14T07:05:03.026Z,99487.06
2023-04-14T07:07:30.149Z,99487.13
2023-04-14T07:09:57.193Z,99493.66
2023-04-14T07:12:24.411Z,99497.00
2023-04-14T07:14:52.318Z,99483.66
2023-04-14T07:17:19.958Z,99499.69
2023-04-14T07:19:47.187Z,99489.31
2023-04-14T07:22:14.135Z,99502.66
2023-04-14T07:24:41.194Z,99494.97
2023-04-14T07:27:15.409Z,99500.88
2023-04-14T07:29:43.118Z,99505.59
2023-04-14T07:32:12.139Z,99490.41
2023-04-14T07:34:44.011Z,99498.41
2023-04-14T07:37:11.482Z,99491.00
2023-04-14T07:39:38.641Z,99501.41
2023-04-14T07:42:05.766Z,99501.41
2023-04-14T07:44:33.399Z,99495.50
2023-04-14T07:47:00.527Z,99482.91
2023-04-14T07:49:27.456Z,99501.41
2023-04-14T07:51:54.392Z,99484.81
2023-04-14T07:54:21.904Z,99498.88
2023-04-14T07:56:49.115Z,99491.78
2023-04-14T07:59:16.219Z,99491.09
2023-04-14T08:01:43.181Z,99487.13
2023-04-14T08:04:11.130Z,99481.97
2023-04-14T08:06:38.214Z,99490.41
2023-04-14T08:09:05.229Z,99481.66
2023-04-14T08:11:32.205Z,99488.78
2023-04-14T08:13:59.122Z,99474.22
2023-04-14T08:16:26.737Z,99478.66
2023-04-14T08:18:55.709Z,99478.09
2023-04-14T08:21:24.251Z,99488.91
2023-04-14T08:23:51.152Z,99487.97
2023-04-14T08:26:18.178Z,99490.78
2023-04-14T08:28:45.184Z,99470.50
2023-04-14T08:31:12.103Z,99499.09
2023-04-14T08:33:39.064Z,99496.63
2023-04-14T08:36:06.922Z,99496.38
2023-04-14T08:38:33.989Z,99498.72
2023-04-14T08:41:04.166Z,99491.84
2023-04-14T08:43:31.073Z,99489.72
2023-04-14T08:45:58.469Z,99487.50
2023-04-14T08:48:33.481Z,99491.13
2023-04-14T08:51:01.476Z,99472.94
2023-04-14T08:53:31.878Z,99483.69
2023-04-14T08:56:04.311Z,99486.63
2023-04-14T08:58:32.478Z,99486.47
2023-04-14T09:01:00.245Z,99487.28
2023-04-14T09:03:27.653Z,99492.44
2023-04-14T09:05:55.349Z,99480.13
2023-04-14T09:08:22.701Z,99483.41
2023-04-14T09:10:51.055Z,99495.47
2023-04-14T09:13:21.715Z,99487.97
2023-04-14T09:15:49.903Z,99485.38
2023-04-14T09:18:17.381Z,99497.19
2023-04-14T09:20:48.068Z,99487.91
2023-04-14T09:23:35.108Z,99496.38
2023-04-14T09:26:02.584Z,99500.88
2023-04-14T09:28:29.488Z,99487.81
2023-04-14T09:30:56.620Z,99486.91
2023-04-14T09:33:23.810Z,99484.28
2023-04-14T09:35:52.460Z,99482.16
2023-04-14T09:38:39.725Z,99482.00
2023-04-14T09:41:07.176Z,99504.19
2023-04-14T09:43:34.448Z,99507.34
2023-04-14T09:46:10.849Z,99493.53
2023-04-14T09:48:57.189Z,99497.47
2023-04-14T09:51:28.573Z,99502.31
2023-04-14T09:54:01.657Z,99519.81
2023-04-14T09:56:29.118Z,99520.97
2023-04-14T09:59:01.155Z,99514.38
2023-04-14T10:01:34.464Z,99525.34
2023-04-14T10:04:02.810Z,99532.66
2023-04-14T10:06:31.571Z,99531.78
2023-04-14T10:09:00.023Z,99539.88
2023-04-14T10:11:36.617Z,99541.47
2023-04-14T10:14:05.450Z,99532.19
2023-04-14T10:16:33.975Z,99525.22
2023-04-14T10:19:02.305Z,99539.97
2023-04-14T10:21:29.737Z,99550.84
2023-04-14T10:23:57.932Z,99552.25
2023-04-14T10:26:26.735Z,99554.63
2023-04-14T10:28:55.670Z,99555.38
2023-04-14T10:31:24.703Z,99554.56
2023-04-14T10:33:52.605Z,99559.78
2023-04-14T10:36:26.393Z,99560.59
2023-04-14T10:39:05.579Z,99556.50
2023-04-14T10:41:44.239Z,99556.84
2023-04-14T10:44:24.380Z,99550.94
2023-04-14T10:46:52.450Z,99544.00
2023-04-14T10:49:22.642Z,99549.91
2023-04-14T10:51:50.201Z,99553.38
2023-04-14T10:54:21.994Z,99559.13
2023-04-14T10:57:12.563Z,99560.25
2023-04-14T10:59:43.420Z,99566.50
2023-04-14T11:02:34.734Z,99559.66
2023-04-14T11:05:04.606Z,99569.66
2023-04-14T11:07:38.229Z,99551.03
2023-04-14T11:10:17.321Z,99555.63
2023-04-14T11:12:45.680Z,99563.69
2023-04-14T11:15:12.972Z,99559.84
2023-04-14T11:17:41.654Z,99551.47
2023-04-14T11:20:18.482Z,99552.84
2023-04-14T11:22:47.533Z,99558.59
2023-04-14T11:25:22.152Z,99547.63
2023-04-14T11:27:51.917Z,99542.94
2023-04-14T11:30:20.070Z,99565.97
2023-04-14T11:32:57.867Z,99555.44
2023-04-14T11:35:27.123Z,99548.66
2023-04-14T11:37:55.985Z,99558.91
2023-04-14T11:40:24.815Z,99554.13
2023-04-14T11:42:54.113Z,99553.13
2023-04-14T11:45:21.441Z,99558.38
2023-04-14T11:48:03.980Z,99558.66
2023-04-14T11:50:33.131Z,99548.91
2023-04-14T11:53:00.837Z,99552.19
2023-04-14T11:55:30.041Z,99544.41
2023-04-14T11:57:58.001Z,99549.25
2023-04-14T12:00:25.449Z,99559.03
2023-04-14T12:02:52.697Z,99549.53
2023-04-14T12:05:31.426Z,99547.13
2023-04-14T12:08:00.052Z,99539.50
2023-04-14T12:10:28.364Z,99533.44
2023-04-14T12:13:08.637Z,99524.19
2023-04-14T12:15:37.453Z,99552.94
2023-04-14T12:18:07.757Z,99544.28
2023-04-14T12:20:47.022Z,99540.81
2023-04-14T12:23:15.617Z,99552.28
2023-04-14T12:25:42.758Z,99529.91
2023-04-14T12:28:10.077Z,99541.66
2023-04-14T12:30:37.801Z,99532.53
2023-04-14T12:33:12.550Z,99543.81
2023-04-14T12:35:40.993Z,99540.91
2023-04-14T12:38:15.297Z,99539.38
2023-04-14T12:40:48.017Z,99539.91
2023-04-14T12:43:16.867Z,99526.69
2023-04-14T12:45:48.924Z,99541.75
2023-04-14T12:48:17.892Z,99545.59
2023-04-14T12:50:45.296Z,99544.38
2023-04-14T12:53:28.891Z,99537.97
2023-04-14T12:56:07.943Z,99541.50
2023-04-14T12:58:39.989Z,99531.13
2023-04-14T13:01:08.944Z,99499.72
2023-04-14T13:03:43.059Z,99526.50
2023-04-14T13:06:11.434Z,99539.16
2023-04-14T13:08:42.730Z,99539.13
2023-04-14T13:11:09.688Z,99541.81
2023-04-14T13:13:36.857Z,99532.28
2023-04-14T13:16:14.603Z,99539.97
2023-04-14T13:18:47.438Z,99550.59
2023-04-14T13:21:14.552Z,99542.69
2023-04-14T13:23:42.135Z,99537.16
2023-04-14T13:26:09.446Z,99556.94
2023-04-14T13:28:36.995Z,99553.69
2023-04-14T13:31:04.354Z,99558.06
2023-04-14T13:33:33.279Z,99543.47
2023-04-14T13:36:02.551Z,99548.13
2023-04-14T13:38:30.153Z,99532.59
2023-04-14T13:40:57.078Z,99554.16
2023-04-14T13:43:24.874Z,99549.59
2023-04-14T13:45:52.896Z,99528.72
2023-04-14T13:48:19.963Z,99559.50
2023-04-14T13:50:48.126Z,99558.25
2023-04-14T13:53:15.056Z,99550.16
2023-04-14T13:55:42.136Z,99572.19
2023-04-14T13:58:09.084Z,99574.78
2023-04-14T14:00:36.406Z,99553.84
2023-04-14T14:03:03.600Z,99572.66
2023-04-14T14:05:30.865Z,99543.38
2023-04-14T14:07:57.862Z,99558.75
2023-04-14T14:10:24.914Z,99576.50
2023-04-14T14:12:51.927Z,99570.09
2023-04-14T14:15:19.163Z,99583.22
2023-04-14T14:17:46.272Z,99583.78
2023-04-14T14:20:13.296Z,99584.13
2023-04-14T14:22:40.491Z,99575.56
2023-04-14T14:25:19.415Z,99577.97
2023-04-14T14:27:50.303Z,99566.72
2023-04-14T14:30:17.349Z,99580.72
2023-04-14T14:32:44.302Z,99588.34
2023-04-14T14:35:11.395Z,99595.06
2023-04-14T14:37:38.458Z,99597.53
2023-04-14T14:40:06.710Z,99590.84
2023-04-14T14:42:33.672Z,99584.63
2023-04-14T14:45:01.841Z,99598.44
2023-04-14T14:47:30.418Z,99596.38
2023-04-14T14:50:03.379Z,99613.47
2023-04-14T14:52:34.664Z,99590.06
2023-04-14T14:55:02.140Z,99606.75
2023-04-14T14:57:30.594Z,99595.59
2023-04-14T14:59:57.875Z,99598.97
2023-04-14T15:02:25.835Z,99593.28
2023-04-14T15:04:54.092Z,99603.75
2023-04-14T15:07:21.005Z,99581.28
2023-04-14T15:09:49.020Z,99603.41
2023-04-14T15:12:16.056Z,99608.63
2023-04-14T15:14:44.227Z,99608.63
2023-04-14T15:17:11.193Z,99618.16
2023-04-14T15:19:38.491Z,99625.59
2023-04-14T15:22:05.620Z,99616.38
2023-04-14T15:24:32.589Z,99632.97
2023-04-14T15:26:59.588Z,99632.25
2023-04-14T15:29:26.830Z,99625.03
2023-04-14T15:31:54.074Z,99636.88
2023-04-14T15:34:21.609Z,99627.41
2023-04-14T15:36:48.842Z,99638.25
2023-04-14T15:39:15.891Z,99647.47
2023-04-14T15:41:43.465Z,99648.19
2023-04-14T15:44:10.484Z,99644.53
2023-04-14T15:46:37.525Z,99637.84
2023-04-14T15:49:04.680Z,99650.13
2023-04-14T15:51:31.533Z,99652.75
2023-04-14T15:53:58.429Z,99655.91
2023-04-14T15:56:26.029Z,99658.19
2023-04-14T15:58:53.060Z,99666.25
2023-04-14T16:01:20.961Z,99680.31
2023-04-14T16:03:49.235Z,99662.72
2023-04-14T16:06:17.459Z,99671.38
2023-04-14T16:08:44.513Z,99673.41
2023-04-14T16:11:18.307Z,99677.84
2023-04-14T16:13:45.817Z,99694.44
2023-04-14T16:16:14.420Z,99683.03
2023-04-14T16:18:42.541Z,99680.28
2023-04-14T16:21:09.632Z,99693.16
2023-04-14T16:23:36.952Z,99696.59
2023-04-14T16:26:04.335Z,99686.28
2023-04-14T16:28:31.536Z,99697.81
2023-04-14T16:31:02.938Z,99704.75
2023-04-14T16:33:32.493Z,99710.16
2023-04-14T16:36:04.312Z,99737.94
2023-04-14T16:38:31.880Z,99708.50
2023-04-14T16:40:59.378Z,99715.06
2023-04-14T16:43:28.177Z,99716.44
2023-04-14T16:46:04.179Z,99728.16
2023-04-14T16:48:32.701Z,99745.72
2023-04-14T16:51:04.802Z,99740.91
2023-04-14T16:53:31.858Z,99761.84
2023-04-14T16:56:09.244Z,99756.19
2023-04-14T16:58:38.066Z,99759.81
2023-04-14T17:01:06.910Z,99756.63
2023-04-14T17:03:34.779Z,99760.78
2023-04-14T17:06:02.685Z,99759.00
2023-04-14T17:08:29.722Z,99768.00
2023-04-14T17:10:56.919Z,99775.94
2023-04-14T17:13:23.882Z,99773.94
2023-04-14T17:15:58.965Z,99772.34
2023-04-14T17:18:34.998Z,99778.78
2023-04-14T17:21:02.169Z,99778.88
2023-04-14T17:23:29.474Z,99789.50
2023-04-14T17:25:58.826Z,99775.06
2023-04-14T17:28:27.324Z,99775.75
2023-04-14T17:30:54.429Z,99784.25
2023-04-14T17:33:22.185Z,99787.59
2023-04-14T17:35:49.369Z,99782.88
2023-04-14T17:38:16.360Z,99805.91
2023-04-14T17:40:43.385Z,99785.06
2023-04-14T17:43:10.293Z,99788.59
2023-04-14T17:45:40.115Z,99796.91
2023-04-14T17:48:08.207Z,99801.09
2023-04-14T17:50:35.915Z,99809.56
2023-04-14T17:53:03.181Z,99802.38
2023-04-14T17:55:30.269Z,99805.13
2023-04-14T17:57:57.818Z,99813.22
2023-04-14T18:00:24.773Z,99805.41
2023-04-14T18:02:52.286Z,99805.19
2023-04-14T18:05:19.481Z,99812.28
2023-04-14T18:07:47.205Z,99805.47
2023-04-14T18:10:14.280Z,99801.56
2023-04-14T18:12:42.010Z,99818.34
2023-04-14T18:15:12.144Z,99810.72
2023-04-14T18:17:39.181Z,99802.03
2023-04-14T18:20:07.218Z,99814.06
2023-04-14T18:22:34.890Z,99800.88
2023-04-14T18:25:03.182Z,99815.38
2023-04-14T18:30:00.240Z,99825.75
2023-04-14T18:32:30.013Z,99811.94
2023-04-14T18:34:57.588Z,99822.28
2023-04-14T18:37:24.652Z,99815.47
2023-04-14T18:39:51.620Z,99828.53
2023-04-14T18:42:18.627Z,99824.41
2023-04-14T18:44:45.716Z,99828.34
2023-04-14T18:47:12.781Z,99834.34
2023-04-14T18:49:39.796Z,99815.75
2023-04-14T18:52:07.573Z,99832.09
2023-04-14T18:54:34.651Z,99829.84
2023-04-14T18:57:03.614Z,99833.78
2023-04-14T18:59:30.574Z,99844.75
2023-04-14T19:01:58.478Z,99845.38
2023-04-14T19:04:26.065Z,99836.72
2023-04-14T19:06:53.040Z,99837.34
2023-04-14T19:09:20.228Z,99854.72
2023-04-14T19:11:47.960Z,99836.53
2023-04-14T19:14:14.862Z,99843.38
2023-04-14T19:16:41.782Z,99851.03
2023-04-14T19:19:08.923Z,99854.34
2023-04-14T19:21:36.344Z,99861.19
2023-04-14T19:24:03.681Z,99862.44
2023-04-14T19:26:30.722Z,99864.72
2023-04-14T19:29:00.300Z,99861.41
2023-04-14T19:31:28.461Z,99860.19
2023-04-14T19:33:56.408Z,99870.72
2023-04-14T19:36:23.654Z,99849.66
2023-04-14T19:38:51.512Z,99851.94
2023-04-14T19:41:19.461Z,99866.41
2023-04-14T19:43:46.932Z,99863.31
2023-04-14T19:46:13.954Z,99861.66
2023-04-14T19:48:40.863Z,99862.91
2023-04-14T19:51:08.119Z,99858.16
2023-04-14T19:53:35.455Z,99866.84
2023-04-14T19:56:03.607Z,99866.41
2023-04-14T19:58:31.474Z,99860.22
2023-04-14T20:00:59.156Z,99875.91
2023-04-14T20:03:26.714Z,99891.41
2023-04-14T20:05:55.842Z,99888.31
2023-04-14T20:08:27.525Z,99886.03
2023-04-14T20:10:55.098Z,99880.06
2023-04-14T20:13:23.370Z,99898.41
2023-04-14T20:15:54.002Z,99895.94
2023-04-14T20:18:22.864Z,99913.28
2023-04-14T20:20:50.283Z,99909.97
2023-04-14T20:23:17.500Z,99914.69
2023-04-14T20:25:45.569Z,99917.16
2023-04-14T20:28:12.766Z,99927.91
2023-04-14T20:30:40.146Z,99920.88
2023-04-14T20:33:07.148Z,99922.94
2023-04-14T20:35:37.146Z,99931.19
2023-04-14T20:38:04.848Z,99932.22
2023-04-14T20:40:31.774Z,99938.63
2023-04-14T20:42:59.445Z,99935.53
2023-04-14T20:45:26.502Z,99941.91
2023-04-14T20:47:53.573Z,99949.97
2023-04-14T20:50:20.625Z,99947.88
2023-04-14T20:52:47.517Z,99949.13
2023-04-14T20:55:14.651Z,99954.69
2023-04-14T20:57:54.528Z,99969.75
2023-04-14T21:00:21.523Z,99969.75
2023-04-14T21:02:49.011Z,99958.19
2023-04-14T21:05:17.763Z,99969.75
2023-04-14T21:07:46.136Z,99957.38
2023-04-14T21:10:15.080Z,99981.69
2023-04-14T21:15:27.088Z,99961.03
2023-04-14T21:15:48.941Z,99980.22
2023-04-14T21:18:16.347Z,99973.41
2023-04-14T21:20:43.648Z,99983.09
2023-04-14T21:23:10.825Z,99969.06
2023-04-14T21:25:37.814Z,99976.06
2023-04-14T21:28:05.006Z,99992.34
2023-04-14T21:30:32.302Z,99988.84
2023-04-14T21:32:59.529Z,99982.88
2023-04-14T21:35:26.479Z,99986.78
2023-04-14T21:37:53.705Z,100002.84
2023-04-14T21:40:21.643Z,99999.56
2023-04-14T21:42:48.582Z,100000.56
2023-04-14T21:45:15.449Z,99998.94
2023-04-14T21:47:42.917Z,100008.00
2023-04-14T21:50:10.569Z,100017.25
2023-04-14T21:52:37.519Z,100006.13
2023-04-14T21:55:04.758Z,100008.97
2023-04-14T21:57:43.589Z,100012.88
2023-04-14T22:00:17.912Z,100018.44
2023-04-14T22:02:45.649Z,100025.84
2023-04-14T22:05:13.783Z,100015.31
2023-04-14T22:07:41.416Z,100024.38
2023-04-14T22:10:08.862Z,100030.97
2023-04-14T22:12:39.950Z,100035.50
2023-04-14T22:15:11.046Z,100030.34
2023-04-14T22:17:39.094Z,100034.25
2023-04-14T22:20:06.985Z,100029.91
2023-04-14T22:22:34.963Z,100020.00
2023-04-14T22:25:03.710Z,100026.59
2023-04-14T22:27:31.487Z,100040.19
2023-04-14T22:29:58.383Z,100032.38
2023-04-14T22:32:25.913Z,100033.59
2023-04-14T22:34:53.087Z,100029.81
2023-04-14T22:37:20.064Z,100041.56
2023-04-14T22:39:46.941Z,100030.59
2023-04-14T22:42:14.077Z,100046.03
2023-04-14T22:44:41.354Z,100041.91
2023-04-14T22:47:08.657Z,100039.81
2023-04-14T22:49:35.793Z,100051.75
2023-04-14T22:52:02.934Z,100052.16
2023-04-14T22:54:29.836Z,100062.22
2023-04-14T22:56:57.312Z,100060.75
2023-04-14T22:59:25.689Z,100062.97
2023-04-14T23:01:53.847Z,100065.03
2023-04-14T23:04:20.983Z,100062.53
2023-04-14T23:06:48.118Z,100063.31
2023-04-14T23:09:15.438Z,100077.09
2023-04-14T23:11:42.746Z,100076.84
2023-04-14T23:14:09.689Z,100088.97
2023-04-14T23:16:36.754Z,100085.06
2023-04-14T23:19:04.043Z,100087.94
2023-04-14T23:21:31.291Z,100091.81
2023-04-14T23:23:58.163Z,100095.25
2023-04-14T23:26:25.731Z,100095.25
2023-04-14T23:28:53.156Z,100097.09
2023-04-14T23:31:20.141Z,100099.31
2023-04-14T23:33:49.590Z,100095.19
2023-04-14T23:36:16.786Z,100104.63
2023-04-14T23:38:43.959Z,100112.38
2023-04-14T23:41:11.344Z,100103.28
2023-04-14T23:43:39.174Z,100107.16
2023-04-14T23:46:06.519Z,100105.69
2023-04-14T23:48:33.415Z,100103.56
2023-04-14T23:51:14.681Z,100118.97
2023-04-14T23:53:45.849Z,100111.97
2023-04-14T23:56:13.180Z,100122.84
2023-04-14T23:58:40.223Z,100115.03
